Flight Track Log - Related Links

Times and Time Zones

All times are in EDT time to prevent confusion due to time zone crossing. See the SKW4764 flight status page for this flight to view local times or setup timezone preferences in your user account.

Time Position Orientation Groundspeed Altitude Reporting Facility
EDT Latitude Longitude Course Direction KTS MPH feet Rate Location/Type
Fri 05:32:59 PM 40.8197 -111.9806 13° North 191 220 4,900  Level Salt Lake Center
Fri 05:33:41 PM 40.8611 -111.9833 357° North 205 236 6,200 1,917 Climbing Salt Lake Center
Fri 05:34:11 PM 40.8897 -111.9889 352° North 212 244 7,200 1,574 Climbing Salt Lake Center
Fri 05:34:42 PM 40.9261 -111.9956 352° North 240 276 7,800 1,355 Climbing Salt Lake Center
Fri 05:35:13 PM 40.9619 -111.9989 356° North 260 299 8,600 1,881 Climbing Salt Lake Center
Fri 05:35:49 PM 41.0114 -112.0033 356° North 269 310 9,900 1,935 Climbing Salt Lake Center
Fri 05:36:00 PM 41.1985 -111.8352 43° Northeast  Level FlightAware Approximate
Fri 05:37:00 PM 41.3009 -111.7658 37° Northeast  Level FlightAware Approximate
Fri 05:37:17 PM 41.1106 -111.9800 10° North 291 335 12,600  Level Salt Lake Center
Fri 05:38:00 PM 41.4015 -111.6896 13° North  Level FlightAware Approximate
Fri 05:38:19 PM 41.1675 -111.8967 48° Northeast 299 344 14,500  Level Salt Lake Center
Fri 05:39:21 PM 41.2353 -111.8192 41° Northeast 324 373 15,400 878 Climbing Salt Lake Center
Fri 05:40:22 PM 41.3228 -111.7561 28° Northeast 356 410 16,300 1,122 Climbing Salt Lake Center
Fri 05:41:24 PM 41.4369 -111.6917 23° Northeast 370 426 17,700 1,258 Climbing Salt Lake Center
Fri 05:42:26 PM 41.5383 -111.6506 17° North 380 437 18,900 1,113 Climbing Salt Lake Center
Fri 05:43:28 PM 41.6406 -111.6100 17° North 385 443 20,000 1,065 Climbing Salt Lake Center
Fri 05:44:30 PM 41.7422 -111.5700 16° North 383 441 21,100 919 Climbing Salt Lake Center
Fri 05:45:32 PM 41.8489 -111.5350 14° North 393 452 21,900 823 Climbing Salt Lake Center
Fri 05:46:34 PM 41.9525 -111.5714 345° North 387 445 22,800 1,065 Climbing Salt Lake Center
Fri 05:47:36 PM 42.0481 -111.6278 336° Northwest 382 440 24,100 1,500 Climbing Salt Lake Center
Fri 05:48:38 PM 42.0994 -111.7642 297° West 343 395 25,900 1,258 Climbing Salt Lake Center
Fri 05:49:40 PM 42.1356 -111.8803 293° West 338 389 26,700 780 Climbing Salt Lake Center
Fri 05:50:41 PM 42.1711 -111.9994 292° West 344 396 27,500 780 Climbing Salt Lake Center
Fri 05:51:43 PM 42.2222 -112.1111 302° West 352 405 28,300 774 Climbing Salt Lake Center
Fri 05:52:45 PM 42.3158 -112.1639 337° Northwest 367 422 29,100 629 Climbing Salt Lake Center
Fri 05:53:47 PM 42.4161 -112.2028 344° North 374 430 29,600 532 Climbing Salt Lake Center
Fri 05:54:49 PM 42.5386 -112.2492 344° North 381 438 30,200 537 Climbing Salt Lake Center
Fri 05:55:50 PM 42.6406 -112.2908 343° North 381 438 30,700 488 Climbing Salt Lake Center
Fri 05:56:52 PM 42.7422 -112.3283 345° North 384 442 31,200 532 Climbing Salt Lake Center
Fri 05:57:54 PM 42.8578 -112.3742 344° North 388 447 31,800 387 Climbing Salt Lake Center
Fri 05:58:56 PM 42.9583 -112.4117 345° North 390 449 32,000 98 Climbing Salt Lake Center
Fri 05:59:57 PM 43.0583 -112.4525 343° North 390 449 32,000  Level Salt Lake Center
Fri 06:00:59 PM 43.1747 -112.4986 344° North 389 448 32,000  Level Salt Lake Center
Fri 06:02:01 PM 43.2742 -112.5369 344° North 387 445 32,000  Level Salt Lake Center
Fri 06:03:03 PM 43.3889 -112.5842 343° North 385 443 32,000  Level Salt Lake Center
Fri 06:04:04 PM 43.4878 -112.6239 344° North 385 443 32,000  Level Salt Lake Center
Fri 06:05:06 PM 43.6025 -112.6686 344° North 383 441 32,000  Level Salt Lake Center
Fri 06:06:07 PM 43.6997 -112.7075 344° North 381 438 32,000  Level Salt Lake Center
Fri 06:07:09 PM 43.7969 -112.7469 344° North 380 437 32,000  Level Salt Lake Center
Fri 06:08:11 PM 43.9108 -112.7939 343° North 381 438 32,000  Level Salt Lake Center
Fri 06:09:12 PM 44.0069 -112.8328 344° North 378 435 32,000  Level Salt Lake Center
Fri 06:10:14 PM 44.1208 -112.8794 344° North 380 437 32,000  Level Salt Lake Center
Fri 06:11:16 PM 44.2189 -112.9206 343° North 382 440 32,000  Level Salt Lake Center
Fri 06:12:17 PM 44.3169 -112.9608 344° North 382 440 32,000  Level Salt Lake Center
Fri 06:13:19 PM 44.4322 -113.0089 343° North 385 443 32,000  Level Salt Lake Center
Fri 06:14:21 PM 44.5292 -113.0486 344° North 383 441 32,000  Level Salt Lake Center
Fri 06:15:22 PM 44.6411 -113.0958 343° North 379 436 32,000  Level Salt Lake Center
Fri 06:16:24 PM 44.7383 -113.1367 343° North 379 436 32,000  Level Salt Lake Center
Fri 06:17:26 PM 44.8350 -113.1781 343° North 379 436 32,000  Level Salt Lake Center
Fri 06:18:27 PM 44.9517 -113.2250 344° North 384 442 32,000  Level Salt Lake Center
Fri 06:19:29 PM 45.0503 -113.2681 343° North 385 443 32,000  Level Salt Lake Center
Fri 06:20:30 PM 45.1658 -113.3164 344° North 386 444 32,000  Level Salt Lake Center
Fri 06:21:32 PM 45.2636 -113.3586 343° North 384 442 32,000 -532 Level Salt Lake Center
Fri 06:22:34 PM 45.3789 -113.4061 344° North 386 444 30,900 -1,463 Descending Salt Lake Center
Fri 06:23:35 PM 45.4756 -113.4458 344° North 381 438 29,000 -1,805 Descending Salt Lake Center
Fri 06:24:37 PM 45.5686 -113.4869 343° North 372 428 27,200 -1,902 Descending Salt Lake Center
Fri 06:25:38 PM 45.6736 -113.5322 343° North 356 410 25,100 -1,902 Descending Salt Lake Center
Fri 06:26:40 PM 45.7608 -113.5717 342° North 347 399 23,300 -1,935 Descending Salt Lake Center
Fri 06:27:42 PM 45.8622 -113.6164 343° North 342 394 21,100 -1,902 Descending Salt Lake Center
Fri 06:28:43 PM 45.9422 -113.6472 345° North 341 392 19,400 -1,707 Descending Salt Lake Center
Fri 06:29:45 PM 46.0311 -113.6886 342° North 338 389 17,600 -2,000 Descending Salt Lake Center
Fri 06:30:46 PM 46.1344 -113.7347 343° North 329 379 15,300 -1,268 Descending Salt Lake Center
Fri 06:31:48 PM 46.2192 -113.7767 341° North 300 345 15,000 -145 Descending Salt Lake Center
Fri 06:32:50 PM 46.2922 -113.8092 343° North 278 320 15,000  Level Salt Lake Center
Fri 06:33:51 PM 46.3686 -113.8400 344° North 285 328 15,000 -293 Level Salt Lake Center
Fri 06:34:53 PM 46.4522 -113.8753 344° North 290 334 14,400 -1,210 Descending Salt Lake Center
Fri 06:35:55 PM 46.5311 -113.9142 341° North 296 341 12,500 -1,805 Descending Salt Lake Center
Fri 06:36:56 PM 46.6069 -113.9594 338° Northwest 295 339 10,700 -1,805 Descending Salt Lake Center
Fri 06:37:58 PM 46.6794 -114.0136 333° Northwest 275 316 8,800 -1,790 Descending Salt Lake Center
Fri 06:39:00 PM 46.7425 -114.0650 331° Northwest 263 303 7,000 -1,366 Descending Salt Lake Center
Fri 06:40:01 PM 46.8058 -114.0472 11° North 242 278 6,000 -1,024 Descending Salt Lake Center
Fri 06:41:03 PM 46.8525 -114.0019 34° Northeast 187 215 4,900 -1,016 Descending Salt Lake Center
Fri 06:42:05 PM 46.8867 -114.0403 323° Northwest 153 176 3,900 -829 Descending Salt Lake Center
Fri 06:43:06 PM 46.9111 -114.0836 310° West 140 161 3,200 -689 Descending Salt Lake Center

Login

Don't have an account? Register now (free) for customized features, flight alerts, and more!